sensor_id;sensor_type;location;lat;lon;timestamp;P1;durP1;ratioP1;P2;durP2;ratioP2
41532;SDS011;27262;-35.248;149.138;2022-07-25T00:00:43;7.50;;;1.20;;
41532;SDS011;27262;-35.248;149.138;2022-07-25T00:03:14;4.25;;;0.82;;
41532;SDS011;27262;-35.248;149.138;2022-07-25T00:05:44;2.05;;;1.00;;
41532;SDS011;27262;-35.248;149.138;2022-07-25T00:08:15;9.70;;;1.15;;
41532;SDS011;27262;-35.248;149.138;2022-07-25T00:10:51;3.50;;;1.02;;
41532;SDS011;27262;-35.248;149.138;2022-07-25T00:13:21;4.00;;;0.90;;
41532;SDS011;27262;-35.248;149.138;2022-07-25T00:15:52;3.85;;;0.95;;
41532;SDS011;27262;-35.248;149.138;2022-07-25T00:18:22;4.90;;;1.02;;
41532;SDS011;27262;-35.248;149.138;2022-07-25T00:20:53;2.35;;;0.70;;
41532;SDS011;27262;-35.248;149.138;2022-07-25T00:23:23;3.80;;;0.98;;
41532;SDS011;27262;-35.248;149.138;2022-07-25T00:25:53;3.70;;;0.93;;
41532;SDS011;27262;-35.248;149.138;2022-07-25T00:28:24;9.38;;;1.02;;
41532;SDS011;27262;-35.248;149.138;2022-07-25T00:30:54;11.20;;;1.10;;
41532;SDS011;27262;-35.248;149.138;2022-07-25T00:33:24;6.97;;;1.00;;
41532;SDS011;27262;-35.248;149.138;2022-07-25T00:35:54;4.20;;;1.00;;
41532;SDS011;27262;-35.248;149.138;2022-07-25T00:38:25;9.45;;;1.20;;
41532;SDS011;27262;-35.248;149.138;2022-07-25T00:40:58;4.68;;;1.05;;
41532;SDS011;27262;-35.248;149.138;2022-07-25T00:43:28;12.25;;;1.35;;
41532;SDS011;27262;-35.248;149.138;2022-07-25T00:45:59;3.65;;;0.70;;
41532;SDS011;27262;-35.248;149.138;2022-07-25T00:48:29;3.08;;;0.80;;
41532;SDS011;27262;-35.248;149.138;2022-07-25T00:51:00;2.25;;;0.80;;
41532;SDS011;27262;-35.248;149.138;2022-07-25T00:53:30;6.85;;;1.02;;
41532;SDS011;27262;-35.248;149.138;2022-07-25T00:56:01;12.57;;;1.20;;
41532;SDS011;27262;-35.248;149.138;2022-07-25T00:58:32;1.98;;;0.93;;
41532;SDS011;27262;-35.248;149.138;2022-07-25T01:01:03;1.83;;;0.70;;
41532;SDS011;27262;-35.248;149.138;2022-07-25T01:03:34;9.50;;;1.27;;
41532;SDS011;27262;-35.248;149.138;2022-07-25T01:06:05;3.70;;;0.80;;
41532;SDS011;27262;-35.248;149.138;2022-07-25T01:08:36;1.90;;;0.90;;
41532;SDS011;27262;-35.248;149.138;2022-07-25T01:11:08;2.92;;;0.60;;
41532;SDS011;27262;-35.248;149.138;2022-07-25T01:13:39;2.42;;;0.88;;
41532;SDS011;27262;-35.248;149.138;2022-07-25T01:16:09;2.88;;;0.80;;
41532;SDS011;27262;-35.248;149.138;2022-07-25T01:18:39;3.85;;;0.90;;
41532;SDS011;27262;-35.248;149.138;2022-07-25T01:21:10;3.40;;;0.65;;
41532;SDS011;27262;-35.248;149.138;2022-07-25T01:23:41;3.13;;;0.73;;
41532;SDS011;27262;-35.248;149.138;2022-07-25T01:26:12;4.82;;;1.02;;
41532;SDS011;27262;-35.248;149.138;2022-07-25T01:28:42;2.85;;;0.93;;
41532;SDS011;27262;-35.248;149.138;2022-07-25T01:31:13;5.90;;;0.98;;
41532;SDS011;27262;-35.248;149.138;2022-07-25T01:33:43;4.45;;;0.80;;
41532;SDS011;27262;-35.248;149.138;2022-07-25T01:36:14;2.85;;;0.80;;
41532;SDS011;27262;-35.248;149.138;2022-07-25T01:38:45;3.17;;;0.70;;
41532;SDS011;27262;-35.248;149.138;2022-07-25T01:41:20;4.18;;;0.90;;
41532;SDS011;27262;-35.248;149.138;2022-07-25T01:43:53;3.35;;;0.77;;
41532;SDS011;27262;-35.248;149.138;2022-07-25T01:46:28;1.73;;;0.77;;
41532;SDS011;27262;-35.248;149.138;2022-07-25T01:48:59;3.83;;;0.98;;
41532;SDS011;27262;-35.248;149.138;2022-07-25T01:51:30;4.05;;;1.00;;
41532;SDS011;27262;-35.248;149.138;2022-07-25T01:54:06;2.97;;;0.60;;
41532;SDS011;27262;-35.248;149.138;2022-07-25T01:56:41;8.80;;;0.95;;
41532;SDS011;27262;-35.248;149.138;2022-07-25T01:59:14;2.13;;;0.95;;
41532;SDS011;27262;-35.248;149.138;2022-07-25T02:01:46;6.32;;;0.85;;
41532;SDS011;27262;-35.248;149.138;2022-07-25T02:04:17;3.38;;;0.68;;
41532;SDS011;27262;-35.248;149.138;2022-07-25T02:06:48;4.05;;;0.60;;
41532;SDS011;27262;-35.248;149.138;2022-07-25T02:09:19;3.08;;;0.70;;
41532;SDS011;27262;-35.248;149.138;2022-07-25T02:11:50;4.55;;;0.60;;
41532;SDS011;27262;-35.248;149.138;2022-07-25T02:14:20;8.63;;;1.20;;
41532;SDS011;27262;-35.248;149.138;2022-07-25T02:16:51;8.05;;;1.35;;
41532;SDS011;27262;-35.248;149.138;2022-07-25T02:19:21;3.17;;;0.70;;
41532;SDS011;27262;-35.248;149.138;2022-07-25T02:21:52;1.27;;;0.60;;
41532;SDS011;27262;-35.248;149.138;2022-07-25T02:24:22;2.05;;;0.50;;
41532;SDS011;27262;-35.248;149.138;2022-07-25T02:26:53;6.22;;;0.70;;
41532;SDS011;27262;-35.248;149.138;2022-07-25T02:29:24;2.58;;;0.52;;
41532;SDS011;27262;-35.248;149.138;2022-07-25T02:31:54;1.55;;;0.55;;
41532;SDS011;27262;-35.248;149.138;2022-07-25T02:34:24;1.02;;;0.50;;
41532;SDS011;27262;-35.248;149.138;2022-07-25T02:36:55;7.80;;;1.10;;
41532;SDS011;27262;-35.248;149.138;2022-07-25T02:39:25;3.65;;;0.90;;
41532;SDS011;27262;-35.248;149.138;2022-07-25T02:41:55;5.50;;;0.90;;
41532;SDS011;27262;-35.248;149.138;2022-07-25T02:44:26;1.08;;;0.60;;
41532;SDS011;27262;-35.248;149.138;2022-07-25T02:46:56;3.92;;;0.63;;
41532;SDS011;27262;-35.248;149.138;2022-07-25T02:49:27;1.33;;;0.75;;
41532;SDS011;27262;-35.248;149.138;2022-07-25T02:51:57;3.00;;;0.70;;
41532;SDS011;27262;-35.248;149.138;2022-07-25T02:54:29;1.58;;;0.50;;
41532;SDS011;27262;-35.248;149.138;2022-07-25T02:56:59;4.65;;;0.90;;
41532;SDS011;27262;-35.248;149.138;2022-07-25T02:59:30;5.13;;;0.90;;
41532;SDS011;27262;-35.248;149.138;2022-07-25T03:02:01;4.22;;;0.77;;
41532;SDS011;27262;-35.248;149.138;2022-07-25T03:04:31;2.38;;;0.63;;
41532;SDS011;27262;-35.248;149.138;2022-07-25T03:07:02;2.65;;;0.60;;
41532;SDS011;27262;-35.248;149.138;2022-07-25T03:09:32;3.00;;;0.75;;
41532;SDS011;27262;-35.248;149.138;2022-07-25T03:12:03;4.63;;;0.75;;
41532;SDS011;27262;-35.248;149.138;2022-07-25T03:14:33;1.15;;;0.70;;
41532;SDS011;27262;-35.248;149.138;2022-07-25T03:17:04;0.88;;;0.50;;
41532;SDS011;27262;-35.248;149.138;2022-07-25T03:19:35;1.00;;;0.55;;
41532;SDS011;27262;-35.248;149.138;2022-07-25T03:22:05;0.90;;;0.70;;
41532;SDS011;27262;-35.248;149.138;2022-07-25T03:24:35;4.10;;;0.80;;
41532;SDS011;27262;-35.248;149.138;2022-07-25T03:27:06;3.67;;;0.52;;
41532;SDS011;27262;-35.248;149.138;2022-07-25T03:29:37;2.20;;;0.57;;
41532;SDS011;27262;-35.248;149.138;2022-07-25T03:32:07;2.35;;;0.57;;
41532;SDS011;27262;-35.248;149.138;2022-07-25T03:34:38;1.35;;;0.43;;
41532;SDS011;27262;-35.248;149.138;2022-07-25T03:37:08;2.65;;;0.50;;
41532;SDS011;27262;-35.248;149.138;2022-07-25T03:39:38;1.00;;;0.60;;
41532;SDS011;27262;-35.248;149.138;2022-07-25T03:42:09;2.00;;;0.70;;
41532;SDS011;27262;-35.248;149.138;2022-07-25T03:44:39;1.08;;;0.50;;
41532;SDS011;27262;-35.248;149.138;2022-07-25T03:47:10;1.52;;;0.60;;
41532;SDS011;27262;-35.248;149.138;2022-07-25T03:49:46;2.47;;;0.60;;
41532;SDS011;27262;-35.248;149.138;2022-07-25T03:52:17;3.97;;;0.60;;
41532;SDS011;27262;-35.248;149.138;2022-07-25T03:54:47;1.60;;;0.77;;
41532;SDS011;27262;-35.248;149.138;2022-07-25T03:57:17;1.33;;;0.70;;
41532;SDS011;27262;-35.248;149.138;2022-07-25T03:59:48;2.58;;;0.65;;
41532;SDS011;27262;-35.248;149.138;2022-07-25T04:02:18;2.83;;;0.50;;
41532;SDS011;27262;-35.248;149.138;2022-07-25T04:04:48;1.90;;;0.82;;
41532;SDS011;27262;-35.248;149.138;2022-07-25T04:07:19;2.47;;;0.88;;
41532;SDS011;27262;-35.248;149.138;2022-07-25T04:09:49;2.85;;;0.65;;
41532;SDS011;27262;-35.248;149.138;2022-07-25T04:12:19;1.23;;;0.50;;
41532;SDS011;27262;-35.248;149.138;2022-07-25T04:14:49;2.75;;;0.65;;
41532;SDS011;27262;-35.248;149.138;2022-07-25T04:17:20;1.83;;;0.80;;
41532;SDS011;27262;-35.248;149.138;2022-07-25T04:19:51;1.60;;;0.70;;
41532;SDS011;27262;-35.248;149.138;2022-07-25T04:22:22;2.38;;;0.75;;
41532;SDS011;27262;-35.248;149.138;2022-07-25T04:24:52;2.20;;;0.50;;
41532;SDS011;27262;-35.248;149.138;2022-07-25T04:27:23;3.50;;;0.60;;
41532;SDS011;27262;-35.248;149.138;2022-07-25T04:29:53;3.40;;;0.65;;
41532;SDS011;27262;-35.248;149.138;2022-07-25T04:32:23;1.08;;;0.80;;
41532;SDS011;27262;-35.248;149.138;2022-07-25T04:34:53;3.53;;;0.70;;
41532;SDS011;27262;-35.248;149.138;2022-07-25T04:37:24;1.70;;;0.57;;
41532;SDS011;27262;-35.248;149.138;2022-07-25T04:39:55;1.50;;;0.60;;
41532;SDS011;27262;-35.248;149.138;2022-07-25T04:42:25;1.92;;;1.00;;
41532;SDS011;27262;-35.248;149.138;2022-07-25T04:44:55;2.67;;;0.55;;
41532;SDS011;27262;-35.248;149.138;2022-07-25T04:47:25;0.63;;;0.60;;
41532;SDS011;27262;-35.248;149.138;2022-07-25T04:49:56;1.80;;;0.70;;
41532;SDS011;27262;-35.248;149.138;2022-07-25T04:52:26;1.20;;;0.70;;
41532;SDS011;27262;-35.248;149.138;2022-07-25T04:54:57;2.75;;;0.70;;
41532;SDS011;27262;-35.248;149.138;2022-07-25T04:57:27;1.35;;;0.60;;
41532;SDS011;27262;-35.248;149.138;2022-07-25T04:59:57;0.82;;;0.73;;
41532;SDS011;27262;-35.248;149.138;2022-07-25T05:02:28;3.40;;;0.63;;
41532;SDS011;27262;-35.248;149.138;2022-07-25T05:04:59;2.15;;;0.80;;
41532;SDS011;27262;-35.248;149.138;2022-07-25T05:07:29;1.40;;;0.55;;
41532;SDS011;27262;-35.248;149.138;2022-07-25T05:09:59;1.20;;;0.77;;
41532;SDS011;27262;-35.248;149.138;2022-07-25T05:12:30;3.22;;;0.70;;
41532;SDS011;27262;-35.248;149.138;2022-07-25T05:15:00;3.40;;;0.75;;
41532;SDS011;27262;-35.248;149.138;2022-07-25T05:17:31;0.70;;;0.60;;
41532;SDS011;27262;-35.248;149.138;2022-07-25T05:20:02;2.42;;;0.60;;
41532;SDS011;27262;-35.248;149.138;2022-07-25T05:22:32;0.88;;;0.60;;
41532;SDS011;27262;-35.248;149.138;2022-07-25T05:25:06;1.35;;;0.60;;
41532;SDS011;27262;-35.248;149.138;2022-07-25T05:27:38;3.50;;;0.70;;
41532;SDS011;27262;-35.248;149.138;2022-07-25T05:30:09;1.15;;;0.60;;
41532;SDS011;27262;-35.248;149.138;2022-07-25T05:32:41;2.20;;;0.68;;
41532;SDS011;27262;-35.248;149.138;2022-07-25T05:35:13;2.83;;;0.70;;
41532;SDS011;27262;-35.248;149.138;2022-07-25T05:37:43;2.33;;;0.70;;
41532;SDS011;27262;-35.248;149.138;2022-07-25T05:40:13;2.03;;;0.60;;
41532;SDS011;27262;-35.248;149.138;2022-07-25T05:42:44;2.03;;;0.60;;
41532;SDS011;27262;-35.248;149.138;2022-07-25T05:45:14;4.97;;;0.82;;
41532;SDS011;27262;-35.248;149.138;2022-07-25T05:47:44;2.80;;;0.80;;
41532;SDS011;27262;-35.248;149.138;2022-07-25T05:50:15;1.48;;;0.80;;
41532;SDS011;27262;-35.248;149.138;2022-07-25T05:52:45;1.48;;;0.57;;
41532;SDS011;27262;-35.248;149.138;2022-07-25T05:55:15;2.50;;;0.80;;
41532;SDS011;27262;-35.248;149.138;2022-07-25T05:57:46;3.20;;;0.60;;
41532;SDS011;27262;-35.248;149.138;2022-07-25T06:00:16;2.03;;;0.70;;
41532;SDS011;27262;-35.248;149.138;2022-07-25T06:02:46;1.65;;;0.70;;
41532;SDS011;27262;-35.248;149.138;2022-07-25T06:05:17;2.78;;;0.77;;
41532;SDS011;27262;-35.248;149.138;2022-07-25T06:07:47;6.82;;;0.80;;
41532;SDS011;27262;-35.248;149.138;2022-07-25T06:10:18;0.70;;;0.70;;
41532;SDS011;27262;-35.248;149.138;2022-07-25T06:12:50;1.60;;;0.77;;
41532;SDS011;27262;-35.248;149.138;2022-07-25T06:15:20;1.02;;;0.60;;
41532;SDS011;27262;-35.248;149.138;2022-07-25T06:17:53;0.93;;;0.68;;
41532;SDS011;27262;-35.248;149.138;2022-07-25T06:20:25;0.55;;;0.40;;
41532;SDS011;27262;-35.248;149.138;2022-07-25T06:22:55;1.38;;;0.50;;
41532;SDS011;27262;-35.248;149.138;2022-07-25T06:25:25;2.05;;;0.57;;
41532;SDS011;27262;-35.248;149.138;2022-07-25T06:27:56;1.52;;;0.50;;
41532;SDS011;27262;-35.248;149.138;2022-07-25T06:30:26;1.77;;;0.50;;
41532;SDS011;27262;-35.248;149.138;2022-07-25T06:32:57;1.13;;;0.60;;
41532;SDS011;27262;-35.248;149.138;2022-07-25T06:35:28;1.60;;;0.80;;
41532;SDS011;27262;-35.248;149.138;2022-07-25T06:37:58;3.03;;;0.70;;
41532;SDS011;27262;-35.248;149.138;2022-07-25T06:40:29;0.93;;;0.60;;
41532;SDS011;27262;-35.248;149.138;2022-07-25T06:42:59;2.20;;;0.73;;
41532;SDS011;27262;-35.248;149.138;2022-07-25T06:45:29;1.52;;;0.50;;
41532;SDS011;27262;-35.248;149.138;2022-07-25T06:48:00;2.05;;;0.68;;
41532;SDS011;27262;-35.248;149.138;2022-07-25T06:50:30;1.20;;;0.73;;
41532;SDS011;27262;-35.248;149.138;2022-07-25T06:53:01;0.98;;;0.70;;
41532;SDS011;27262;-35.248;149.138;2022-07-25T06:55:31;2.38;;;0.50;;
41532;SDS011;27262;-35.248;149.138;2022-07-25T06:58:01;1.17;;;0.70;;
41532;SDS011;27262;-35.248;149.138;2022-07-25T07:00:32;0.60;;;0.60;;
41532;SDS011;27262;-35.248;149.138;2022-07-25T07:03:03;0.60;;;0.50;;
41532;SDS011;27262;-35.248;149.138;2022-07-25T07:05:34;3.03;;;0.55;;
41532;SDS011;27262;-35.248;149.138;2022-07-25T07:08:05;1.05;;;0.88;;
41532;SDS011;27262;-35.248;149.138;2022-07-25T07:10:35;2.30;;;0.47;;
41532;SDS011;27262;-35.248;149.138;2022-07-25T07:13:06;1.27;;;0.55;;
41532;SDS011;27262;-35.248;149.138;2022-07-25T07:15:42;1.02;;;0.70;;
41532;SDS011;27262;-35.248;149.138;2022-07-25T07:18:18;1.75;;;0.75;;
41532;SDS011;27262;-35.248;149.138;2022-07-25T07:20:49;1.75;;;0.77;;
41532;SDS011;27262;-35.248;149.138;2022-07-25T07:23:20;2.53;;;0.57;;
41532;SDS011;27262;-35.248;149.138;2022-07-25T07:25:50;2.28;;;0.60;;
41532;SDS011;27262;-35.248;149.138;2022-07-25T07:28:21;1.55;;;0.50;;
41532;SDS011;27262;-35.248;149.138;2022-07-25T07:30:51;0.77;;;0.50;;
41532;SDS011;27262;-35.248;149.138;2022-07-25T07:33:41;0.98;;;0.50;;
41532;SDS011;27262;-35.248;149.138;2022-07-25T07:36:12;2.22;;;0.50;;
41532;SDS011;27262;-35.248;149.138;2022-07-25T07:38:45;1.17;;;0.63;;
41532;SDS011;27262;-35.248;149.138;2022-07-25T07:41:19;0.70;;;0.70;;
41532;SDS011;27262;-35.248;149.138;2022-07-25T07:43:49;0.80;;;0.60;;
41532;SDS011;27262;-35.248;149.138;2022-07-25T07:46:20;0.98;;;0.60;;
41532;SDS011;27262;-35.248;149.138;2022-07-25T07:48:50;0.82;;;0.60;;
41532;SDS011;27262;-35.248;149.138;2022-07-25T07:51:21;1.45;;;0.50;;
41532;SDS011;27262;-35.248;149.138;2022-07-25T07:53:51;2.15;;;0.70;;
41532;SDS011;27262;-35.248;149.138;2022-07-25T07:56:39;3.25;;;0.60;;
41532;SDS011;27262;-35.248;149.138;2022-07-25T07:59:10;1.83;;;0.70;;
41532;SDS011;27262;-35.248;149.138;2022-07-25T08:01:40;4.05;;;0.60;;
41532;SDS011;27262;-35.248;149.138;2022-07-25T08:04:11;3.78;;;0.90;;
41532;SDS011;27262;-35.248;149.138;2022-07-25T08:06:41;1.73;;;0.68;;
41532;SDS011;27262;-35.248;149.138;2022-07-25T08:09:11;1.88;;;0.80;;
41532;SDS011;27262;-35.248;149.138;2022-07-25T08:11:42;2.85;;;0.73;;
41532;SDS011;27262;-35.248;149.138;2022-07-25T08:14:12;3.50;;;0.70;;
41532;SDS011;27262;-35.248;149.138;2022-07-25T08:16:42;8.60;;;1.23;;
41532;SDS011;27262;-35.248;149.138;2022-07-25T08:19:12;4.28;;;1.20;;
41532;SDS011;27262;-35.248;149.138;2022-07-25T08:21:42;6.38;;;1.00;;
41532;SDS011;27262;-35.248;149.138;2022-07-25T08:24:13;4.90;;;0.90;;
41532;SDS011;27262;-35.248;149.138;2022-07-25T08:26:43;5.18;;;1.02;;
41532;SDS011;27262;-35.248;149.138;2022-07-25T08:29:13;9.63;;;1.33;;
41532;SDS011;27262;-35.248;149.138;2022-07-25T08:31:46;16.75;;;4.80;;
41532;SDS011;27262;-35.248;149.138;2022-07-25T08:34:16;24.48;;;7.78;;
41532;SDS011;27262;-35.248;149.138;2022-07-25T08:36:49;36.25;;;9.95;;
41532;SDS011;27262;-35.248;149.138;2022-07-25T08:39:20;41.42;;;11.63;;
41532;SDS011;27262;-35.248;149.138;2022-07-25T08:41:50;39.58;;;11.82;;
41532;SDS011;27262;-35.248;149.138;2022-07-25T08:44:21;49.17;;;13.07;;
41532;SDS011;27262;-35.248;149.138;2022-07-25T08:46:56;42.65;;;13.43;;
41532;SDS011;27262;-35.248;149.138;2022-07-25T08:49:27;39.88;;;12.63;;
41532;SDS011;27262;-35.248;149.138;2022-07-25T08:51:58;42.28;;;12.00;;
41532;SDS011;27262;-35.248;149.138;2022-07-25T08:54:29;41.10;;;12.70;;
41532;SDS011;27262;-35.248;149.138;2022-07-25T08:57:00;39.90;;;12.60;;
41532;SDS011;27262;-35.248;149.138;2022-07-25T08:59:31;35.50;;;10.45;;
41532;SDS011;27262;-35.248;149.138;2022-07-25T09:02:01;33.88;;;10.20;;
41532;SDS011;27262;-35.248;149.138;2022-07-25T09:04:34;30.10;;;9.85;;
41532;SDS011;27262;-35.248;149.138;2022-07-25T09:07:05;31.60;;;10.50;;
41532;SDS011;27262;-35.248;149.138;2022-07-25T09:09:37;25.58;;;8.98;;
41532;SDS011;27262;-35.248;149.138;2022-07-25T09:12:07;30.80;;;9.05;;
41532;SDS011;27262;-35.248;149.138;2022-07-25T09:14:41;26.92;;;8.70;;
41532;SDS011;27262;-35.248;149.138;2022-07-25T09:17:12;24.52;;;8.25;;
41532;SDS011;27262;-35.248;149.138;2022-07-25T09:19:56;20.90;;;7.45;;
41532;SDS011;27262;-35.248;149.138;2022-07-25T09:22:26;22.23;;;7.13;;
41532;SDS011;27262;-35.248;149.138;2022-07-25T09:24:57;20.23;;;6.18;;
41532;SDS011;27262;-35.248;149.138;2022-07-25T09:27:31;23.35;;;6.50;;
41532;SDS011;27262;-35.248;149.138;2022-07-25T09:30:10;19.33;;;5.80;;
41532;SDS011;27262;-35.248;149.138;2022-07-25T09:32:43;18.05;;;5.95;;
41532;SDS011;27262;-35.248;149.138;2022-07-25T09:35:14;14.93;;;4.95;;
41532;SDS011;27262;-35.248;149.138;2022-07-25T09:37:44;13.48;;;4.80;;
41532;SDS011;27262;-35.248;149.138;2022-07-25T09:40:15;14.50;;;4.53;;
41532;SDS011;27262;-35.248;149.138;2022-07-25T09:42:49;14.55;;;4.70;;
41532;SDS011;27262;-35.248;149.138;2022-07-25T09:45:19;11.45;;;4.53;;
41532;SDS011;27262;-35.248;149.138;2022-07-25T09:47:57;8.43;;;3.53;;
41532;SDS011;27262;-35.248;149.138;2022-07-25T09:50:30;9.82;;;3.58;;
41532;SDS011;27262;-35.248;149.138;2022-07-25T09:53:01;10.48;;;4.03;;
41532;SDS011;27262;-35.248;149.138;2022-07-25T09:55:31;9.52;;;3.42;;
41532;SDS011;27262;-35.248;149.138;2022-07-25T09:58:02;9.20;;;3.70;;
41532;SDS011;27262;-35.248;149.138;2022-07-25T10:00:32;8.60;;;3.35;;
41532;SDS011;27262;-35.248;149.138;2022-07-25T10:05:43;11.50;;;3.40;;
41532;SDS011;27262;-35.248;149.138;2022-07-25T10:08:27;7.72;;;2.72;;
41532;SDS011;27262;-35.248;149.138;2022-07-25T10:11:03;7.82;;;2.60;;
41532;SDS011;27262;-35.248;149.138;2022-07-25T10:13:34;7.45;;;2.35;;
41532;SDS011;27262;-35.248;149.138;2022-07-25T10:16:13;6.07;;;2.42;;
41532;SDS011;27262;-35.248;149.138;2022-07-25T10:18:48;5.93;;;2.17;;
41532;SDS011;27262;-35.248;149.138;2022-07-25T10:21:24;5.25;;;2.45;;
41532;SDS011;27262;-35.248;149.138;2022-07-25T10:26:29;6.00;;;2.38;;
41532;SDS011;27262;-35.248;149.138;2022-07-25T10:29:00;5.55;;;2.72;;
41532;SDS011;27262;-35.248;149.138;2022-07-25T10:31:36;5.88;;;2.55;;
41532;SDS011;27262;-35.248;149.138;2022-07-25T10:34:16;4.78;;;1.98;;
41532;SDS011;27262;-35.248;149.138;2022-07-25T10:39:44;4.00;;;1.60;;
41532;SDS011;27262;-35.248;149.138;2022-07-25T10:42:21;3.83;;;1.85;;
41532;SDS011;27262;-35.248;149.138;2022-07-25T10:44:54;4.70;;;2.30;;
41532;SDS011;27262;-35.248;149.138;2022-07-25T10:47:25;5.13;;;1.83;;
41532;SDS011;27262;-35.248;149.138;2022-07-25T10:49:57;3.78;;;1.70;;
41532;SDS011;27262;-35.248;149.138;2022-07-25T10:52:57;4.22;;;1.25;;
41532;SDS011;27262;-35.248;149.138;2022-07-25T10:55:28;3.63;;;1.77;;
41532;SDS011;27262;-35.248;149.138;2022-07-25T10:58:00;2.75;;;1.30;;
41532;SDS011;27262;-35.248;149.138;2022-07-25T11:00:44;1.30;;;1.13;;
41532;SDS011;27262;-35.248;149.138;2022-07-25T11:03:14;2.50;;;1.45;;
41532;SDS011;27262;-35.248;149.138;2022-07-25T11:05:46;4.25;;;1.25;;
41532;SDS011;27262;-35.248;149.138;2022-07-25T11:08:17;2.85;;;1.20;;
41532;SDS011;27262;-35.248;149.138;2022-07-25T11:10:58;3.50;;;1.40;;
41532;SDS011;27262;-35.248;149.138;2022-07-25T11:13:29;3.55;;;1.55;;
41532;SDS011;27262;-35.248;149.138;2022-07-25T11:16:04;3.05;;;1.13;;
41532;SDS011;27262;-35.248;149.138;2022-07-25T11:18:36;3.88;;;1.52;;
41532;SDS011;27262;-35.248;149.138;2022-07-25T11:21:07;2.42;;;1.23;;
41532;SDS011;27262;-35.248;149.138;2022-07-25T11:23:38;2.33;;;1.20;;
41532;SDS011;27262;-35.248;149.138;2022-07-25T11:26:12;1.90;;;1.13;;
41532;SDS011;27262;-35.248;149.138;2022-07-25T11:28:43;3.70;;;1.65;;
41532;SDS011;27262;-35.248;149.138;2022-07-25T11:31:16;2.30;;;1.17;;
41532;SDS011;27262;-35.248;149.138;2022-07-25T11:33:50;1.95;;;1.20;;
41532;SDS011;27262;-35.248;149.138;2022-07-25T11:36:21;1.40;;;0.93;;
41532;SDS011;27262;-35.248;149.138;2022-07-25T11:38:51;1.83;;;1.00;;
41532;SDS011;27262;-35.248;149.138;2022-07-25T11:41:28;1.75;;;0.90;;
41532;SDS011;27262;-35.248;149.138;2022-07-25T11:43:58;1.33;;;0.75;;
41532;SDS011;27262;-35.248;149.138;2022-07-25T11:46:29;1.98;;;1.23;;
41532;SDS011;27262;-35.248;149.138;2022-07-25T11:49:11;1.30;;;1.05;;
41532;SDS011;27262;-35.248;149.138;2022-07-25T11:51:42;2.13;;;1.13;;
41532;SDS011;27262;-35.248;149.138;2022-07-25T11:54:14;2.58;;;1.00;;
41532;SDS011;27262;-35.248;149.138;2022-07-25T11:56:44;2.08;;;0.95;;
41532;SDS011;27262;-35.248;149.138;2022-07-25T11:59:14;2.00;;;1.10;;
41532;SDS011;27262;-35.248;149.138;2022-07-25T12:01:45;2.17;;;1.10;;
41532;SDS011;27262;-35.248;149.138;2022-07-25T12:04:18;2.10;;;1.25;;
41532;SDS011;27262;-35.248;149.138;2022-07-25T12:06:49;2.35;;;1.45;;
41532;SDS011;27262;-35.248;149.138;2022-07-25T12:09:20;3.55;;;1.20;;
41532;SDS011;27262;-35.248;149.138;2022-07-25T12:12:00;3.28;;;1.77;;
41532;SDS011;27262;-35.248;149.138;2022-07-25T12:14:40;2.33;;;1.20;;
41532;SDS011;27262;-35.248;149.138;2022-07-25T12:17:11;3.10;;;1.50;;
41532;SDS011;27262;-35.248;149.138;2022-07-25T12:19:43;1.85;;;1.30;;
41532;SDS011;27262;-35.248;149.138;2022-07-25T12:22:14;4.15;;;1.48;;
41532;SDS011;27262;-35.248;149.138;2022-07-25T12:24:45;1.55;;;1.17;;
41532;SDS011;27262;-35.248;149.138;2022-07-25T12:27:15;2.28;;;1.48;;
41532;SDS011;27262;-35.248;149.138;2022-07-25T12:29:45;1.70;;;1.30;;
41532;SDS011;27262;-35.248;149.138;2022-07-25T12:32:15;1.58;;;1.25;;
41532;SDS011;27262;-35.248;149.138;2022-07-25T12:34:46;1.75;;;1.40;;
41532;SDS011;27262;-35.248;149.138;2022-07-25T12:37:17;1.58;;;1.30;;
41532;SDS011;27262;-35.248;149.138;2022-07-25T12:39:49;2.53;;;1.60;;
41532;SDS011;27262;-35.248;149.138;2022-07-25T12:42:20;2.28;;;1.48;;
41532;SDS011;27262;-35.248;149.138;2022-07-25T12:44:50;1.83;;;1.25;;
41532;SDS011;27262;-35.248;149.138;2022-07-25T12:47:21;2.45;;;1.80;;
41532;SDS011;27262;-35.248;149.138;2022-07-25T12:49:52;1.83;;;1.40;;
41532;SDS011;27262;-35.248;149.138;2022-07-25T12:52:23;1.73;;;1.52;;
41532;SDS011;27262;-35.248;149.138;2022-07-25T12:54:53;1.90;;;1.63;;
41532;SDS011;27262;-35.248;149.138;2022-07-25T12:57:24;1.73;;;1.35;;
41532;SDS011;27262;-35.248;149.138;2022-07-25T12:59:55;1.77;;;1.30;;
41532;SDS011;27262;-35.248;149.138;2022-07-25T13:02:25;2.08;;;1.40;;
41532;SDS011;27262;-35.248;149.138;2022-07-25T13:04:56;2.58;;;1.75;;
41532;SDS011;27262;-35.248;149.138;2022-07-25T13:07:26;2.38;;;1.70;;
41532;SDS011;27262;-35.248;149.138;2022-07-25T13:09:57;2.35;;;1.85;;
41532;SDS011;27262;-35.248;149.138;2022-07-25T13:12:27;1.85;;;1.75;;
41532;SDS011;27262;-35.248;149.138;2022-07-25T13:14:57;2.83;;;2.00;;
41532;SDS011;27262;-35.248;149.138;2022-07-25T13:17:30;2.53;;;1.75;;
41532;SDS011;27262;-35.248;149.138;2022-07-25T13:20:00;3.25;;;2.03;;
41532;SDS011;27262;-35.248;149.138;2022-07-25T13:22:31;1.80;;;1.55;;
41532;SDS011;27262;-35.248;149.138;2022-07-25T13:25:02;3.50;;;1.80;;
41532;SDS011;27262;-35.248;149.138;2022-07-25T13:27:33;3.10;;;1.98;;
41532;SDS011;27262;-35.248;149.138;2022-07-25T13:30:04;2.90;;;2.10;;
41532;SDS011;27262;-35.248;149.138;2022-07-25T13:32:35;2.72;;;2.20;;
41532;SDS011;27262;-35.248;149.138;2022-07-25T13:35:05;2.88;;;1.88;;
41532;SDS011;27262;-35.248;149.138;2022-07-25T13:37:36;2.08;;;1.77;;
41532;SDS011;27262;-35.248;149.138;2022-07-25T13:40:06;2.33;;;2.13;;
41532;SDS011;27262;-35.248;149.138;2022-07-25T13:42:38;3.30;;;2.15;;
41532;SDS011;27262;-35.248;149.138;2022-07-25T13:45:08;3.03;;;2.20;;
41532;SDS011;27262;-35.248;149.138;2022-07-25T13:47:39;2.70;;;1.83;;
41532;SDS011;27262;-35.248;149.138;2022-07-25T13:50:09;2.88;;;1.80;;
41532;SDS011;27262;-35.248;149.138;2022-07-25T13:52:40;2.17;;;1.98;;
41532;SDS011;27262;-35.248;149.138;2022-07-25T13:55:10;2.63;;;2.05;;
41532;SDS011;27262;-35.248;149.138;2022-07-25T13:57:40;2.75;;;1.80;;
41532;SDS011;27262;-35.248;149.138;2022-07-25T14:00:11;3.10;;;2.35;;
41532;SDS011;27262;-35.248;149.138;2022-07-25T14:02:41;2.92;;;2.10;;
41532;SDS011;27262;-35.248;149.138;2022-07-25T14:05:12;2.15;;;1.98;;
41532;SDS011;27262;-35.248;149.138;2022-07-25T14:07:42;2.47;;;2.05;;
41532;SDS011;27262;-35.248;149.138;2022-07-25T14:10:12;2.42;;;2.10;;
41532;SDS011;27262;-35.248;149.138;2022-07-25T14:12:42;2.10;;;1.90;;
41532;SDS011;27262;-35.248;149.138;2022-07-25T14:15:13;2.28;;;2.08;;
41532;SDS011;27262;-35.248;149.138;2022-07-25T14:17:43;2.45;;;2.20;;
41532;SDS011;27262;-35.248;149.138;2022-07-25T14:20:14;2.28;;;1.98;;
41532;SDS011;27262;-35.248;149.138;2022-07-25T14:22:44;3.03;;;2.50;;
41532;SDS011;27262;-35.248;149.138;2022-07-25T14:25:14;2.25;;;1.98;;
41532;SDS011;27262;-35.248;149.138;2022-07-25T14:27:45;2.30;;;2.10;;
41532;SDS011;27262;-35.248;149.138;2022-07-25T14:30:15;2.20;;;2.00;;
41532;SDS011;27262;-35.248;149.138;2022-07-25T14:32:45;2.45;;;2.13;;
41532;SDS011;27262;-35.248;149.138;2022-07-25T14:35:16;2.95;;;2.08;;
41532;SDS011;27262;-35.248;149.138;2022-07-25T14:37:48;2.05;;;1.77;;